createdAt,value
2023-05-20T00:00:53.530Z,0.00
2023-05-20T00:01:48.826Z,0.00
2023-05-20T00:02:43.736Z,0.00
2023-05-20T00:03:38.849Z,0.00
2023-05-20T00:04:33.734Z,0.00
2023-05-20T00:05:28.752Z,0.00
2023-05-20T00:06:24.006Z,0.00
2023-05-20T00:07:18.895Z,0.00
2023-05-20T00:08:14.115Z,0.00
2023-05-20T00:09:09.244Z,0.00
2023-05-20T00:10:07.057Z,0.00
2023-05-20T00:11:02.146Z,0.00
2023-05-20T00:11:57.421Z,0.00
2023-05-20T00:12:52.275Z,0.00
2023-05-20T00:13:47.360Z,0.00
2023-05-20T00:14:42.456Z,0.00
2023-05-20T00:15:37.831Z,0.00
2023-05-20T00:16:32.735Z,0.00
2023-05-20T00:17:27.739Z,0.00
2023-05-20T00:18:22.820Z,0.00
2023-05-20T00:19:17.963Z,0.00
2023-05-20T00:20:12.942Z,0.00
2023-05-20T00:21:08.024Z,0.00
2023-05-20T00:22:03.366Z,0.00
2023-05-20T00:22:58.150Z,0.00
2023-05-20T00:23:53.248Z,0.00
2023-05-20T00:24:48.208Z,0.00
2023-05-20T00:25:43.332Z,0.00
2023-05-20T00:26:40.984Z,0.00
2023-05-20T00:27:36.134Z,0.00
2023-05-20T00:28:31.182Z,0.00
2023-05-20T00:29:26.353Z,0.00
2023-05-20T00:30:21.294Z,0.00
2023-05-20T00:31:16.740Z,0.00
2023-05-20T00:32:11.604Z,0.00
2023-05-20T00:33:06.749Z,0.00
2023-05-20T00:34:01.757Z,0.00
2023-05-20T00:34:56.890Z,0.00
2023-05-20T00:35:51.965Z,0.00
2023-05-20T00:36:47.023Z,0.00
2023-05-20T00:37:41.969Z,0.00
2023-05-20T00:38:36.992Z,0.00
2023-05-20T00:39:32.092Z,0.00
2023-05-20T00:40:28.227Z,0.00
2023-05-20T00:41:23.465Z,0.00
2023-05-20T00:42:18.593Z,0.00
2023-05-20T00:43:14.099Z,0.00
2023-05-20T00:44:09.209Z,0.00
2023-05-20T00:45:04.426Z,0.00
2023-05-20T00:45:59.910Z,0.00
2023-05-20T00:46:54.985Z,0.00
2023-05-20T00:47:50.251Z,0.00
2023-05-20T00:48:45.467Z,0.00
2023-05-20T00:49:40.702Z,0.00
2023-05-20T00:50:35.823Z,0.00
2023-05-20T00:51:31.132Z,0.00
2023-05-20T00:52:26.112Z,0.00
2023-05-20T00:53:21.185Z,0.00
2023-05-20T00:54:16.134Z,0.00
2023-05-20T00:55:11.245Z,0.00
2023-05-20T00:56:06.524Z,0.00
2023-05-20T00:57:01.494Z,0.00
2023-05-20T00:57:56.588Z,0.00
2023-05-20T00:58:51.609Z,0.00
2023-05-20T00:59:46.687Z,0.00
2023-05-20T01:00:41.840Z,0.00
2023-05-20T01:01:37.045Z,0.00
2023-05-20T01:02:31.957Z,0.00
2023-05-20T01:03:27.187Z,0.00
2023-05-20T01:04:21.919Z,0.00
2023-05-20T01:05:16.943Z,0.00
2023-05-20T01:06:12.157Z,0.00
2023-05-20T01:07:07.113Z,0.00
2023-05-20T01:08:02.115Z,0.00
2023-05-20T01:08:57.268Z,0.00
2023-05-20T01:09:52.263Z,0.00
2023-05-20T01:10:49.701Z,0.00
2023-05-20T01:11:44.641Z,0.00
2023-05-20T01:12:39.694Z,0.00
2023-05-20T01:13:34.660Z,0.00
2023-05-20T01:14:29.699Z,0.00
2023-05-20T01:15:24.783Z,0.00
2023-05-20T01:16:20.031Z,0.00
2023-05-20T01:17:14.885Z,0.00
2023-05-20T01:18:09.937Z,0.00
2023-05-20T01:19:04.993Z,0.00
2023-05-20T01:20:00.047Z,0.00
2023-05-20T01:20:55.205Z,0.00
2023-05-20T01:21:50.757Z,0.00
2023-05-20T01:22:46.014Z,0.00
2023-05-20T01:23:41.289Z,0.00
2023-05-20T01:24:37.100Z,0.00
2023-05-20T01:25:32.684Z,0.00
2023-05-20T01:26:28.265Z,0.00
2023-05-20T01:27:23.419Z,0.00
2023-05-20T01:28:18.934Z,0.00
2023-05-20T01:29:14.617Z,0.00
2023-05-20T01:30:09.848Z,0.00
2023-05-20T01:31:05.408Z,0.00
2023-05-20T01:32:01.220Z,0.00
2023-05-20T01:32:56.530Z,0.00
2023-05-20T01:33:52.207Z,0.00
2023-05-20T01:34:47.454Z,0.00
2023-05-20T01:35:42.990Z,0.00
2023-05-20T01:36:38.575Z,0.00
2023-05-20T01:37:33.829Z,0.00
2023-05-20T01:38:29.685Z,0.00
2023-05-20T01:39:25.636Z,0.00
2023-05-20T01:40:20.355Z,0.00
2023-05-20T01:41:16.195Z,0.00
2023-05-20T01:42:11.357Z,0.00
2023-05-20T01:43:06.445Z,0.00
2023-05-20T01:44:02.932Z,0.00
2023-05-20T01:44:58.182Z,0.00
2023-05-20T01:45:54.313Z,0.00
2023-05-20T01:46:49.256Z,0.00
2023-05-20T01:47:44.565Z,0.00
2023-05-20T01:48:40.330Z,0.00
2023-05-20T01:49:35.634Z,0.00
2023-05-20T01:50:31.416Z,0.00
2023-05-20T01:51:26.844Z,0.00
2023-05-20T01:52:21.848Z,0.00
2023-05-20T01:53:17.648Z,0.00
2023-05-20T01:54:12.893Z,0.00
2023-05-20T01:55:08.141Z,0.00
2023-05-20T01:56:04.630Z,0.00
2023-05-20T01:56:59.776Z,0.00
2023-05-20T01:57:55.576Z,0.00
2023-05-20T01:58:50.855Z,0.00
2023-05-20T01:59:46.099Z,0.00
2023-05-20T02:00:41.557Z,0.00
2023-05-20T02:01:36.655Z,0.00
2023-05-20T02:02:32.519Z,0.00
2023-05-20T02:03:27.699Z,0.00
2023-05-20T02:04:22.973Z,0.00
2023-05-20T02:05:19.416Z,0.00
2023-05-20T02:06:14.542Z,0.00
2023-05-20T02:07:10.301Z,0.00
2023-05-20T02:08:05.604Z,0.00
2023-05-20T02:09:00.708Z,0.00
2023-05-20T02:09:56.562Z,0.00
2023-05-20T02:10:51.804Z,0.00
2023-05-20T02:11:47.750Z,0.00
2023-05-20T02:12:42.856Z,0.00
2023-05-20T02:13:38.256Z,0.00
2023-05-20T02:14:34.074Z,0.00
2023-05-20T02:15:29.550Z,0.00
2023-05-20T02:16:24.731Z,0.00
2023-05-20T02:17:19.845Z,0.00
2023-05-20T02:18:15.083Z,0.00
2023-05-20T02:19:10.230Z,0.00
2023-05-20T02:20:05.350Z,0.00
2023-05-20T02:21:03.884Z,0.00
2023-05-20T02:21:58.964Z,0.00
2023-05-20T02:22:54.255Z,0.00
2023-05-20T02:23:49.481Z,0.00
2023-05-20T02:24:44.603Z,0.00
2023-05-20T02:25:39.842Z,0.00
2023-05-20T02:26:34.734Z,0.00
2023-05-20T02:27:29.811Z,0.00
2023-05-20T02:28:24.838Z,0.00
2023-05-20T02:29:19.923Z,0.00
2023-05-20T02:30:15.221Z,0.00
2023-05-20T02:31:10.317Z,0.00
2023-05-20T02:32:05.466Z,0.00
2023-05-20T02:33:00.448Z,0.00
2023-05-20T02:33:55.568Z,0.00
2023-05-20T02:34:50.826Z,0.00
2023-05-20T02:35:45.711Z,0.00
2023-05-20T02:36:40.673Z,0.00
2023-05-20T02:37:35.749Z,0.00
2023-05-20T02:38:30.725Z,0.00
2023-05-20T02:39:25.834Z,0.00
2023-05-20T02:40:20.820Z,0.00
2023-05-20T02:41:15.917Z,0.00
2023-05-20T02:42:10.904Z,0.00
2023-05-20T02:43:06.043Z,0.00
2023-05-20T02:44:00.973Z,0.00
2023-05-20T02:44:56.268Z,0.00
2023-05-20T02:45:51.247Z,0.00
2023-05-20T02:46:46.337Z,0.00
2023-05-20T02:47:41.323Z,0.00
2023-05-20T02:48:36.433Z,0.00
2023-05-20T02:49:31.697Z,0.00
2023-05-20T02:50:26.547Z,0.00
2023-05-20T02:51:21.630Z,0.00
2023-05-20T02:52:16.774Z,0.00
2023-05-20T02:53:11.855Z,0.00
2023-05-20T02:54:07.136Z,0.00
2023-05-20T02:55:02.276Z,0.00
2023-05-20T02:55:57.530Z,0.00
2023-05-20T02:56:52.770Z,0.00
2023-05-20T02:57:47.918Z,0.00
2023-05-20T02:58:43.023Z,1.00
2023-05-20T02:59:38.296Z,1.00
2023-05-20T03:00:33.705Z,1.00
2023-05-20T03:01:29.020Z,0.00
2023-05-20T03:02:24.043Z,1.00
2023-05-20T03:03:19.251Z,1.00
2023-05-20T03:04:14.502Z,1.00
2023-05-20T03:05:09.784Z,2.00
2023-05-20T03:06:04.981Z,1.00
2023-05-20T03:07:00.279Z,2.00
2023-05-20T03:07:55.514Z,2.00
2023-05-20T03:08:50.763Z,2.00
2023-05-20T03:09:45.958Z,3.00
2023-05-20T03:10:41.384Z,3.00
2023-05-20T03:11:36.351Z,3.00
2023-05-20T03:12:31.600Z,4.00
2023-05-20T03:13:26.963Z,4.00
2023-05-20T03:14:22.082Z,5.00
2023-05-20T03:15:17.451Z,5.00
2023-05-20T03:16:12.674Z,6.00
2023-05-20T03:17:07.740Z,7.00
2023-05-20T03:18:03.255Z,8.00
2023-05-20T03:18:58.278Z,10.00
2023-05-20T03:19:53.534Z,10.00
2023-05-20T03:20:48.852Z,11.00
2023-05-20T03:21:44.008Z,14.00
2023-05-20T03:22:39.273Z,15.00
2023-05-20T03:23:37.025Z,17.00
2023-05-20T03:24:32.190Z,18.00
2023-05-20T03:25:27.539Z,21.00
2023-05-20T03:26:22.682Z,21.00
2023-05-20T03:27:18.149Z,23.00
2023-05-20T03:28:13.453Z,25.00
2023-05-20T03:29:08.486Z,27.00
2023-05-20T03:30:03.495Z,29.00
2023-05-20T03:30:58.850Z,31.00
2023-05-20T03:31:53.835Z,35.00
2023-05-20T03:32:48.688Z,38.00
2023-05-20T03:33:43.739Z,36.00
2023-05-20T03:34:38.750Z,43.00
2023-05-20T03:35:33.898Z,53.00
2023-05-20T03:36:28.854Z,58.00
2023-05-20T03:37:23.866Z,56.00
2023-05-20T03:38:18.982Z,54.00
2023-05-20T03:39:13.988Z,58.00
2023-05-20T03:40:09.755Z,64.00
2023-05-20T03:41:04.766Z,64.00
2023-05-20T03:41:59.776Z,70.00
2023-05-20T03:42:54.931Z,86.00
2023-05-20T03:43:49.995Z,92.00
2023-05-20T03:44:44.987Z,96.00
2023-05-20T03:45:40.107Z,98.00
2023-05-20T03:46:35.153Z,97.00
2023-05-20T03:47:30.185Z,102.00
2023-05-20T03:48:25.192Z,100.00
2023-05-20T03:49:20.284Z,104.00
2023-05-20T03:50:15.266Z,115.00
2023-05-20T03:51:10.360Z,134.00
2023-05-20T03:52:05.363Z,141.00
2023-05-20T03:53:00.569Z,146.00
2023-05-20T03:53:55.513Z,157.00
2023-05-20T03:54:53.202Z,170.00
2023-05-20T03:55:48.275Z,182.00
2023-05-20T03:56:43.376Z,198.00
2023-05-20T03:57:38.401Z,207.00
2023-05-20T03:58:33.455Z,224.00
2023-05-20T03:59:28.422Z,227.00
2023-05-20T04:00:23.624Z,237.00
2023-05-20T04:01:18.530Z,263.00
2023-05-20T04:02:13.717Z,327.00
2023-05-20T04:03:08.888Z,332.00
2023-05-20T04:04:03.868Z,354.00
2023-05-20T04:04:59.333Z,373.00
2023-05-20T04:05:54.905Z,394.00
2023-05-20T04:06:50.150Z,393.00
2023-05-20T04:07:45.565Z,396.00
2023-05-20T04:08:41.398Z,429.00
2023-05-20T04:09:36.858Z,450.00
2023-05-20T04:10:32.542Z,438.00
2023-05-20T04:11:27.966Z,456.00
2023-05-20T04:12:23.237Z,507.00
2023-05-20T04:13:19.061Z,528.00
2023-05-20T04:14:14.352Z,533.00
2023-05-20T04:15:09.798Z,552.00
2023-05-20T04:16:05.888Z,606.00
2023-05-20T04:17:01.386Z,685.00
2023-05-20T04:17:57.062Z,645.00
2023-05-20T04:18:52.467Z,680.00
2023-05-20T04:19:47.941Z,717.00
2023-05-20T04:20:43.543Z,784.00
2023-05-20T04:21:38.947Z,766.00
2023-05-20T04:22:34.905Z,774.00
2023-05-20T04:23:30.065Z,868.00
2023-05-20T04:24:25.465Z,810.00
2023-05-20T04:25:21.463Z,809.00
2023-05-20T04:26:16.628Z,783.00
2023-05-20T04:27:12.044Z,891.00
2023-05-20T04:28:08.182Z,834.00
2023-05-20T04:29:03.449Z,828.00
2023-05-20T04:29:59.348Z,809.00
2023-05-20T04:30:54.610Z,796.00
2023-05-20T04:31:50.198Z,793.00
2023-05-20T04:32:45.802Z,793.00
2023-05-20T04:33:41.217Z,792.00
2023-05-20T04:34:37.099Z,766.00
2023-05-20T04:35:32.465Z,683.00
2023-05-20T04:36:27.756Z,768.00
2023-05-20T04:37:23.415Z,757.00
2023-05-20T04:38:18.673Z,714.00
2023-05-20T04:39:13.995Z,710.00
2023-05-20T04:40:10.353Z,769.00
2023-05-20T04:41:05.536Z,797.00
2023-05-20T04:42:01.223Z,800.00
2023-05-20T04:42:56.631Z,818.00
2023-05-20T04:43:51.908Z,821.00
2023-05-20T04:44:47.769Z,820.00
2023-05-20T04:45:43.115Z,931.00
2023-05-20T04:46:38.861Z,1016.00
2023-05-20T04:47:34.121Z,961.00
2023-05-20T04:48:29.562Z,1038.00
2023-05-20T04:49:25.503Z,1111.00
2023-05-20T04:50:20.721Z,1039.00
2023-05-20T04:51:16.047Z,1028.00
2023-05-20T04:52:11.515Z,1104.00
2023-05-20T04:53:07.253Z,1187.00
2023-05-20T04:54:02.739Z,1324.00
2023-05-20T04:54:58.245Z,1326.00
2023-05-20T04:55:53.880Z,1271.00
2023-05-20T04:56:49.276Z,1337.00
2023-05-20T04:57:45.061Z,1380.00
2023-05-20T04:58:40.367Z,1513.00
2023-05-20T04:59:36.105Z,1518.00
2023-05-20T05:00:31.598Z,1544.00
2023-05-20T05:01:26.958Z,1672.00
2023-05-20T05:02:22.292Z,1712.00
2023-05-20T05:03:18.597Z,1594.00
2023-05-20T05:04:14.178Z,1644.00
2023-05-20T05:05:09.627Z,1522.00
2023-05-20T05:06:05.065Z,1450.00
2023-05-20T05:07:00.415Z,1578.00
2023-05-20T05:07:56.156Z,1548.00
2023-05-20T05:08:51.485Z,1599.00
2023-05-20T05:09:46.971Z,1638.00
2023-05-20T05:10:42.269Z,1723.00
2023-05-20T05:11:37.659Z,1820.00
2023-05-20T05:12:32.691Z,1919.00
2023-05-20T05:13:27.784Z,1907.00
2023-05-20T05:14:23.147Z,1948.00
2023-05-20T05:15:18.100Z,1987.00
2023-05-20T05:16:13.176Z,1978.00
2023-05-20T05:17:08.288Z,2067.00
2023-05-20T05:18:03.297Z,2098.00
2023-05-20T05:18:58.668Z,2102.00
2023-05-20T05:19:53.393Z,2095.00
2023-05-20T05:20:48.508Z,2073.00
2023-05-20T05:21:43.688Z,2093.00
2023-05-20T05:22:38.812Z,2096.00
2023-05-20T05:23:33.846Z,1935.00
2023-05-20T05:24:29.096Z,2070.00
2023-05-20T05:25:23.996Z,2035.00
2023-05-20T05:26:19.625Z,1971.00
2023-05-20T05:27:14.941Z,2000.00
2023-05-20T05:28:10.607Z,1910.00
2023-05-20T05:29:06.329Z,1775.00
2023-05-20T05:30:01.617Z,1797.00
2023-05-20T05:30:57.528Z,1643.00
2023-05-20T05:31:52.925Z,1477.00
2023-05-20T05:32:48.340Z,1436.00
2023-05-20T05:33:44.096Z,1549.00
2023-05-20T05:34:39.394Z,1558.00
2023-05-20T05:35:34.955Z,1570.00
2023-05-20T05:36:30.947Z,1675.00
2023-05-20T05:37:26.408Z,1748.00
2023-05-20T05:38:22.306Z,1722.00
2023-05-20T05:39:17.787Z,1886.00
2023-05-20T05:40:13.244Z,1925.00
2023-05-20T05:41:08.882Z,2013.00
2023-05-20T05:42:04.186Z,2057.00
2023-05-20T05:42:59.998Z,2133.00
2023-05-20T05:43:55.560Z,2305.00
2023-05-20T05:44:50.854Z,2362.00
2023-05-20T05:45:46.817Z,2311.00
2023-05-20T05:46:42.367Z,2356.00
2023-05-20T05:47:37.819Z,2321.00
2023-05-20T05:48:34.400Z,2293.00
2023-05-20T05:49:29.535Z,2179.00
2023-05-20T05:50:25.346Z,2156.00
2023-05-20T05:51:20.756Z,2306.00
2023-05-20T05:52:16.145Z,2407.00
2023-05-20T05:53:11.982Z,2417.00
2023-05-20T05:54:07.527Z,2542.00
2023-05-20T05:55:03.298Z,2302.00
2023-05-20T05:55:58.658Z,2183.00
2023-05-20T05:56:54.021Z,2157.00
2023-05-20T05:57:49.864Z,2812.00
2023-05-20T05:58:45.415Z,3103.00
2023-05-20T05:59:40.677Z,3102.00
2023-05-20T06:00:37.022Z,3196.00
2023-05-20T06:01:32.392Z,3375.00
2023-05-20T06:02:28.877Z,3387.00
2023-05-20T06:04:48.042Z,4099.00
2023-05-20T06:05:43.026Z,4070.00
2023-05-20T06:06:38.555Z,4068.00
2023-05-20T06:07:33.958Z,3982.00
2023-05-20T06:08:29.653Z,4460.00
2023-05-20T06:09:25.008Z,4628.00
2023-05-20T06:10:20.418Z,4704.00
2023-05-20T06:11:15.784Z,4178.00
2023-05-20T06:12:13.264Z,3968.00
2023-05-20T06:13:06.521Z,3853.00
2023-05-20T06:14:02.227Z,4226.00
2023-05-20T06:14:57.587Z,4235.00
2023-05-20T06:15:53.014Z,4290.00
2023-05-20T06:16:48.371Z,4059.00
2023-05-20T06:17:43.914Z,3748.00
2023-05-20T06:18:39.473Z,3617.00
2023-05-20T06:19:35.250Z,3482.00
2023-05-20T06:20:30.323Z,3457.00
2023-05-20T06:21:25.886Z,3391.00
2023-05-20T06:22:21.257Z,3631.00
2023-05-20T06:23:16.802Z,3813.00
2023-05-20T06:24:12.045Z,4000.00
2023-05-20T06:25:07.466Z,4600.00
2023-05-20T06:26:02.978Z,4483.00
2023-05-20T06:26:58.254Z,3822.00
2023-05-20T06:27:53.652Z,4091.00
2023-05-20T06:28:49.219Z,4300.00
2023-05-20T06:29:44.436Z,4178.00
2023-05-20T06:30:40.037Z,4490.00
2023-05-20T06:31:35.418Z,4423.00
2023-05-20T06:32:30.987Z,3983.00
2023-05-20T06:33:26.516Z,3947.00
2023-05-20T06:34:21.910Z,4170.00
2023-05-20T06:35:17.289Z,4356.00
2023-05-20T06:36:12.670Z,4062.00
2023-05-20T06:37:08.197Z,4388.00
2023-05-20T06:38:03.940Z,4261.00
2023-05-20T06:38:59.152Z,4084.00
2023-05-20T06:39:54.579Z,4112.00
2023-05-20T06:40:50.030Z,3748.00
2023-05-20T06:41:45.543Z,3463.00
2023-05-20T06:42:40.817Z,3310.00
2023-05-20T06:43:36.496Z,3159.00
2023-05-20T06:44:31.741Z,3459.00
2023-05-20T06:45:27.153Z,3859.00
2023-05-20T06:46:22.533Z,4275.00
2023-05-20T06:47:18.003Z,4232.00
2023-05-20T06:48:13.689Z,4043.00
2023-05-20T06:49:08.961Z,4413.00
2023-05-20T06:50:04.361Z,4468.00
2023-05-20T06:50:59.760Z,4072.00
2023-05-20T06:51:55.162Z,3933.00
2023-05-20T06:52:50.765Z,4246.00
2023-05-20T06:53:46.001Z,4649.00
2023-05-20T06:54:41.815Z,4627.00
2023-05-20T06:55:37.124Z,4604.00
2023-05-20T06:56:32.396Z,5346.00
2023-05-20T06:57:27.898Z,5401.00
2023-05-20T06:58:23.471Z,5343.00
2023-05-20T06:59:18.714Z,6253.00
2023-05-20T07:00:14.121Z,7147.00
2023-05-20T07:01:09.530Z,7215.00
2023-05-20T07:02:05.048Z,6037.00
2023-05-20T07:03:00.440Z,5177.00
2023-05-20T07:03:55.951Z,4789.00
2023-05-20T07:04:51.241Z,4587.00
2023-05-20T07:05:46.672Z,5337.00
2023-05-20T07:06:42.017Z,6071.00
2023-05-20T07:07:37.554Z,6777.00
2023-05-20T07:08:33.260Z,6019.00
2023-05-20T07:09:28.516Z,5201.00
2023-05-20T07:10:23.869Z,5386.00
2023-05-20T07:11:19.278Z,6629.00
2023-05-20T07:12:14.616Z,6938.00
2023-05-20T07:13:10.480Z,7352.00
2023-05-20T07:14:05.699Z,7721.00
2023-05-20T07:15:01.224Z,8100.00
2023-05-20T07:15:56.743Z,8319.00
2023-05-20T07:16:52.159Z,7956.00
2023-05-20T07:17:48.676Z,7622.00
2023-05-20T07:18:43.119Z,7584.00
2023-05-20T07:19:38.452Z,8222.00
2023-05-20T07:20:33.853Z,8770.00
2023-05-20T07:21:29.252Z,9924.00
2023-05-20T07:22:24.731Z,11479.00
2023-05-20T07:23:20.327Z,11574.00
2023-05-20T07:24:15.685Z,10348.00
2023-05-20T07:25:11.083Z,9577.00
2023-05-20T07:26:06.590Z,8913.00
2023-05-20T07:27:02.112Z,9214.00
2023-05-20T07:27:57.810Z,9755.00
2023-05-20T07:28:53.054Z,11208.00
2023-05-20T07:29:48.668Z,11564.00
2023-05-20T07:30:44.099Z,10697.00
2023-05-20T07:31:39.586Z,10418.00
2023-05-20T07:32:35.378Z,10354.00
2023-05-20T07:33:30.666Z,10126.00
2023-05-20T07:34:26.008Z,8490.00
2023-05-20T07:35:21.455Z,7328.00
2023-05-20T07:36:16.826Z,6738.00
2023-05-20T07:37:12.496Z,7455.00
2023-05-20T07:38:08.076Z,7856.00
2023-05-20T07:39:05.740Z,8391.00
2023-05-20T07:39:59.859Z,9131.00
2023-05-20T07:40:54.216Z,9061.00
2023-05-20T07:41:49.600Z,10181.00
2023-05-20T07:42:45.161Z,11090.00
2023-05-20T07:43:40.399Z,10887.00
2023-05-20T07:44:35.956Z,11384.00
2023-05-20T07:45:31.533Z,10943.00
2023-05-20T07:46:26.935Z,10029.00
2023-05-20T07:47:22.384Z,9841.00
2023-05-20T07:48:17.910Z,10387.00
2023-05-20T07:49:13.346Z,10582.00
2023-05-20T07:50:08.952Z,9812.00
2023-05-20T07:51:04.368Z,10530.00
2023-05-20T07:52:02.086Z,11887.00
2023-05-20T07:52:56.928Z,12523.00
2023-05-20T07:53:50.982Z,11523.00
2023-05-20T07:54:46.416Z,11430.00
2023-05-20T07:55:41.974Z,9079.00
2023-05-20T07:56:37.277Z,9121.00
2023-05-20T07:57:32.868Z,11587.00
2023-05-20T07:58:28.170Z,13390.00
2023-05-20T07:59:23.647Z,11641.00
2023-05-20T08:00:19.081Z,10019.00
2023-05-20T08:01:14.540Z,9269.00
2023-05-20T08:02:10.075Z,9071.00
2023-05-20T08:03:05.486Z,8998.00
2023-05-20T08:04:00.786Z,9048.00
2023-05-20T08:04:56.216Z,9775.00
2023-05-20T08:05:51.733Z,10296.00
2023-05-20T08:06:47.078Z,10514.00
2023-05-20T08:07:42.686Z,11138.00
2023-05-20T08:08:38.029Z,11475.00
2023-05-20T08:09:33.460Z,11802.00
2023-05-20T08:10:28.924Z,11231.00
2023-05-20T08:11:24.366Z,11362.00
2023-05-20T08:12:19.878Z,14050.00
2023-05-20T08:13:15.276Z,15820.00
2023-05-20T08:14:10.802Z,14783.00
2023-05-20T08:15:06.241Z,13718.00
2023-05-20T08:16:01.850Z,14346.00
2023-05-20T08:16:57.492Z,16052.00
2023-05-20T08:17:52.799Z,14848.00
2023-05-20T08:18:48.384Z,13950.00
2023-05-20T08:19:43.729Z,14102.00
2023-05-20T08:20:39.153Z,13682.00
2023-05-20T08:21:34.633Z,12639.00
2023-05-20T08:22:30.190Z,11380.00
2023-05-20T08:23:25.532Z,10987.00
2023-05-20T08:24:21.009Z,11885.00
2023-05-20T08:25:16.472Z,12962.00
2023-05-20T08:26:11.904Z,13374.00
2023-05-20T08:27:07.534Z,12850.00
2023-05-20T08:28:02.964Z,13750.00
2023-05-20T08:28:58.404Z,15823.00
2023-05-20T08:29:53.851Z,19592.00
2023-05-20T08:30:49.471Z,23856.00
2023-05-20T08:31:45.180Z,18096.00
2023-05-20T08:32:40.564Z,15755.00
2023-05-20T08:33:35.970Z,14044.00
2023-05-20T08:34:31.545Z,14057.00
2023-05-20T08:35:26.865Z,14500.00
2023-05-20T08:36:22.348Z,15071.00
2023-05-20T08:37:17.942Z,14503.00
2023-05-20T08:38:13.271Z,14646.00
2023-05-20T08:39:08.668Z,15739.00
2023-05-20T08:40:04.154Z,17008.00
2023-05-20T08:41:00.437Z,18040.00
2023-05-20T08:41:55.268Z,17504.00
2023-05-20T08:42:50.710Z,15948.00
2023-05-20T08:43:46.055Z,15842.00
2023-05-20T08:44:41.497Z,17072.00
2023-05-20T08:45:36.981Z,17104.00
2023-05-20T08:46:32.456Z,18704.00
2023-05-20T08:47:28.267Z,17560.00
2023-05-20T08:48:23.441Z,17008.00
2023-05-20T08:49:18.884Z,17504.00
2023-05-20T08:50:14.454Z,26360.00
2023-05-20T08:51:09.838Z,18512.00
2023-05-20T08:52:05.455Z,17184.00
2023-05-20T08:53:00.802Z,17976.00
2023-05-20T08:53:56.287Z,21736.00
2023-05-20T08:54:51.647Z,37936.00
2023-05-20T08:55:47.006Z,65535.00
2023-05-20T08:56:42.694Z,28552.00
2023-05-20T08:57:38.059Z,26176.00
2023-05-20T08:58:33.479Z,34728.00
2023-05-20T08:59:28.856Z,43144.00
2023-05-20T09:00:24.225Z,49320.00
2023-05-20T09:01:19.616Z,65535.00
2023-05-20T09:02:15.166Z,34040.00
2023-05-20T09:03:10.610Z,26808.00
2023-05-20T09:04:05.884Z,27280.00
2023-05-20T09:05:01.475Z,27960.00
2023-05-20T09:05:56.832Z,27664.00
2023-05-20T09:06:52.217Z,30016.00
2023-05-20T09:07:47.629Z,52136.00
2023-05-20T09:08:43.113Z,31672.00
2023-05-20T09:09:38.485Z,27472.00
2023-05-20T09:10:33.857Z,38944.00
2023-05-20T09:11:29.292Z,27200.00
2023-05-20T09:12:24.755Z,25840.00
2023-05-20T09:13:22.245Z,20960.00
2023-05-20T09:14:15.645Z,23152.00
2023-05-20T09:15:11.091Z,50960.00
2023-05-20T09:16:06.545Z,65352.00
2023-05-20T09:17:02.020Z,65535.00
2023-05-20T09:17:57.385Z,28968.00
2023-05-20T09:18:52.899Z,65535.00
2023-05-20T09:19:48.203Z,65535.00
2023-05-20T09:20:43.727Z,65535.00
2023-05-20T09:21:39.372Z,65535.00
2023-05-20T09:22:34.674Z,46472.00
2023-05-20T09:23:30.284Z,41640.00
2023-05-20T09:24:25.758Z,45248.00
2023-05-20T09:25:23.706Z,46656.00
2023-05-20T09:26:16.925Z,61160.00
2023-05-20T09:27:12.158Z,65535.00
2023-05-20T09:28:07.543Z,65535.00
2023-05-20T09:29:03.051Z,65535.00
2023-05-20T09:29:58.427Z,65535.00
2023-05-20T09:30:53.957Z,65535.00
2023-05-20T09:31:49.623Z,62904.00
2023-05-20T09:32:45.121Z,63360.00
2023-05-20T09:33:40.484Z,65535.00
2023-05-20T09:34:35.978Z,65535.00
2023-05-20T09:35:31.583Z,65535.00
2023-05-20T09:36:27.028Z,65535.00
2023-05-20T09:37:22.432Z,65535.00
2023-05-20T09:38:17.911Z,65535.00
2023-05-20T09:39:13.258Z,65535.00
2023-05-20T09:40:08.768Z,65535.00
2023-05-20T09:41:04.381Z,65535.00
2023-05-20T09:42:00.257Z,65535.00
2023-05-20T09:42:55.096Z,65535.00
2023-05-20T09:43:50.594Z,65535.00
2023-05-20T09:44:45.925Z,65535.00
2023-05-20T09:45:41.328Z,65535.00
2023-05-20T09:46:36.851Z,56400.00
2023-05-20T09:47:32.404Z,65535.00
2023-05-20T09:48:28.127Z,65535.00
2023-05-20T09:49:23.501Z,65535.00
2023-05-20T09:50:18.993Z,65535.00
2023-05-20T09:51:14.824Z,65535.00
2023-05-20T09:52:10.049Z,65535.00
2023-05-20T09:53:05.462Z,30368.00
2023-05-20T09:54:00.884Z,65535.00
2023-05-20T09:54:56.415Z,65535.00
2023-05-20T09:55:51.787Z,65535.00
2023-05-20T09:56:47.155Z,65535.00
2023-05-20T09:57:42.756Z,65535.00
2023-05-20T09:58:38.016Z,65535.00
2023-05-20T09:59:33.408Z,65535.00
2023-05-20T10:00:28.803Z,65535.00
2023-05-20T10:01:24.520Z,65535.00
2023-05-20T10:02:19.910Z,65535.00
2023-05-20T10:03:15.496Z,65535.00
2023-05-20T10:04:10.979Z,65535.00
2023-05-20T10:05:06.458Z,65535.00
2023-05-20T10:06:02.028Z,65535.00
2023-05-20T10:06:57.379Z,65535.00
2023-05-20T10:07:52.950Z,65535.00
2023-05-20T10:08:48.289Z,65535.00
2023-05-20T10:09:43.844Z,40464.00
2023-05-20T10:10:39.582Z,36008.00
2023-05-20T10:11:34.682Z,64192.00
2023-05-20T10:12:30.156Z,50896.00
2023-05-20T10:13:25.552Z,65535.00
2023-05-20T10:14:21.025Z,32520.00
2023-05-20T10:15:16.373Z,65535.00
2023-05-20T10:16:12.063Z,65535.00
2023-05-20T10:17:07.397Z,65535.00
2023-05-20T10:18:02.814Z,39240.00
2023-05-20T10:18:58.336Z,51168.00
2023-05-20T10:19:53.657Z,46816.00
2023-05-20T10:20:49.208Z,29872.00
2023-05-20T10:21:44.793Z,34912.00
2023-05-20T10:22:40.148Z,46232.00
2023-05-20T10:23:35.815Z,25984.00
2023-05-20T10:24:31.121Z,22672.00
2023-05-20T10:25:26.693Z,27048.00
2023-05-20T10:26:22.645Z,32288.00
2023-05-20T10:27:17.868Z,35176.00
2023-05-20T10:28:13.346Z,20560.00
2023-05-20T10:29:10.291Z,19616.00
2023-05-20T10:30:04.421Z,23544.00
2023-05-20T10:30:59.716Z,53384.00
2023-05-20T10:31:55.180Z,65535.00
2023-05-20T10:32:50.671Z,65535.00
2023-05-20T10:33:46.220Z,65535.00
2023-05-20T10:34:41.421Z,65535.00
2023-05-20T10:35:36.801Z,61720.00
2023-05-20T10:36:32.336Z,52616.00
2023-05-20T10:37:27.798Z,61560.00
2023-05-20T10:38:23.075Z,41792.00
2023-05-20T10:39:18.605Z,58680.00
2023-05-20T10:40:14.092Z,46104.00
2023-05-20T10:41:09.605Z,30480.00
2023-05-20T10:42:05.137Z,33424.00
2023-05-20T10:43:00.403Z,28168.00
2023-05-20T10:43:55.895Z,35320.00
2023-05-20T10:44:51.420Z,65535.00
2023-05-20T10:45:46.799Z,50920.00
2023-05-20T10:46:59.983Z,60928.00
2023-05-20T10:47:39.035Z,59520.00
2023-05-20T10:48:33.588Z,40104.00
2023-05-20T10:49:28.685Z,34440.00
2023-05-20T10:50:24.290Z,28792.00
2023-05-20T10:51:19.931Z,28008.00
2023-05-20T10:52:15.656Z,25864.00
2023-05-20T10:53:15.624Z,25328.00
2023-05-20T10:54:07.571Z,26184.00
2023-05-20T10:55:01.964Z,25776.00
2023-05-20T10:55:57.733Z,27352.00
2023-05-20T10:56:53.047Z,27792.00
2023-05-20T10:57:48.780Z,33424.00
2023-05-20T10:58:44.258Z,37776.00
2023-05-20T10:59:39.655Z,44536.00
2023-05-20T11:00:35.665Z,50216.00
2023-05-20T11:01:30.651Z,41104.00
2023-05-20T11:02:26.232Z,39664.00
2023-05-20T11:03:21.534Z,34680.00
2023-05-20T11:04:17.019Z,29056.00
2023-05-20T11:05:12.577Z,28336.00
2023-05-20T11:06:07.953Z,27288.00
2023-05-20T11:07:03.495Z,32280.00
2023-05-20T11:07:58.893Z,31896.00
2023-05-20T11:08:54.385Z,27624.00
2023-05-20T11:09:49.861Z,28440.00
2023-05-20T11:10:45.258Z,28128.00
2023-05-20T11:11:40.634Z,26224.00
2023-05-20T11:12:36.107Z,26192.00
2023-05-20T11:13:31.339Z,25656.00
2023-05-20T11:14:26.828Z,25456.00
2023-05-20T11:15:22.317Z,25336.00
2023-05-20T11:16:17.631Z,22984.00
2023-05-20T11:17:13.255Z,22576.00
2023-05-20T11:18:08.690Z,22056.00
2023-05-20T11:19:04.225Z,21472.00
2023-05-20T11:19:59.682Z,20216.00
2023-05-20T11:20:55.087Z,20184.00
2023-05-20T11:21:50.696Z,19056.00
2023-05-20T11:22:46.147Z,19384.00
2023-05-20T11:23:41.711Z,18144.00
2023-05-20T11:24:37.261Z,17744.00
2023-05-20T11:25:32.812Z,17816.00
2023-05-20T11:26:28.125Z,18712.00